createdAt,value
2019-01-14T00:00:15.799Z,92.00
2019-01-14T00:02:46.611Z,92.30
2019-01-14T00:05:15.799Z,92.00
2019-01-14T00:07:44.998Z,92.30
2019-01-14T00:10:14.118Z,92.60
2019-01-14T00:12:43.238Z,92.50
2019-01-14T00:15:12.588Z,93.30
2019-01-14T00:17:41.767Z,93.20
2019-01-14T00:20:13.574Z,93.30
2019-01-14T00:22:42.693Z,93.60
2019-01-14T00:25:11.821Z,93.60
2019-01-14T00:27:40.950Z,93.60
2019-01-14T00:30:16.024Z,93.70
2019-01-14T00:32:45.344Z,92.80
2019-01-14T00:35:14.471Z,92.50
2019-01-14T00:37:43.597Z,92.40
2019-01-14T00:40:14.690Z,92.50
2019-01-14T00:42:43.986Z,92.00
2019-01-14T00:45:13.186Z,92.00
2019-01-14T00:47:42.366Z,92.40
2019-01-14T00:50:13.523Z,91.90
2019-01-14T00:52:42.778Z,91.40
2019-01-14T00:55:11.900Z,91.30
2019-01-14T00:57:41.022Z,91.00
2019-01-14T01:00:16.338Z,91.70
2019-01-14T01:02:46.426Z,91.10
2019-01-14T01:05:15.622Z,91.50
2019-01-14T01:07:44.798Z,91.70
2019-01-14T01:10:16.060Z,92.00
2019-01-14T01:12:45.617Z,92.20
2019-01-14T01:15:15.719Z,91.60
2019-01-14T01:17:44.903Z,92.90
2019-01-14T01:20:17.037Z,93.50
2019-01-14T01:22:46.440Z,93.30
2019-01-14T01:25:15.629Z,93.40
2019-01-14T01:27:44.748Z,93.30
2019-01-14T01:30:15.623Z,93.80
2019-01-14T01:32:44.742Z,92.90
2019-01-14T01:35:14.302Z,92.80
2019-01-14T01:37:43.438Z,93.40
2019-01-14T01:40:15.196Z,93.60
2019-01-14T01:42:44.432Z,93.90
2019-01-14T01:45:13.696Z,94.10
2019-01-14T01:47:42.830Z,93.60
2019-01-14T01:50:14.284Z,92.90
2019-01-14T01:52:43.508Z,92.70
2019-01-14T01:55:12.767Z,92.30
2019-01-14T01:57:41.929Z,92.50
2019-01-14T02:00:14.315Z,93.10
2019-01-14T02:02:43.549Z,92.90
2019-01-14T02:05:13.010Z,92.80
2019-01-14T02:07:42.231Z,93.20
2019-01-14T02:10:16.898Z,93.40
2019-01-14T02:12:46.017Z,93.90
2019-01-14T02:15:17.288Z,93.70
2019-01-14T02:17:46.597Z,93.50
2019-01-14T02:20:17.531Z,93.90
2019-01-14T02:22:46.756Z,94.20
2019-01-14T02:25:16.159Z,94.60
2019-01-14T02:27:45.423Z,95.10
2019-01-14T02:30:20.092Z,94.50
2019-01-14T02:32:49.283Z,93.60
2019-01-14T02:35:18.398Z,93.50
2019-01-14T02:37:47.542Z,92.30
2019-01-14T02:40:20.774Z,92.80
2019-01-14T02:42:50.007Z,92.60
2019-01-14T02:45:19.239Z,92.20
2019-01-14T02:47:48.355Z,93.00
2019-01-14T02:50:17.576Z,93.30
2019-01-14T02:52:46.704Z,93.60
2019-01-14T02:55:15.891Z,93.00
2019-01-14T02:57:46.000Z,92.70
2019-01-14T03:00:21.501Z,93.30
2019-01-14T03:02:50.756Z,92.40
2019-01-14T03:05:19.938Z,93.20
2019-01-14T03:07:49.075Z,93.40
2019-01-14T03:10:18.222Z,93.70
2019-01-14T03:12:47.348Z,93.70
2019-01-14T03:15:16.908Z,94.00
2019-01-14T03:17:46.068Z,93.60
2019-01-14T03:20:17.131Z,93.90
2019-01-14T03:22:46.276Z,93.90
2019-01-14T03:25:15.560Z,93.90
2019-01-14T03:27:44.684Z,93.80
2019-01-14T03:30:17.644Z,94.00
2019-01-14T03:32:46.756Z,93.60
2019-01-14T03:35:15.903Z,93.50
2019-01-14T03:37:45.058Z,93.50
2019-01-14T03:40:15.516Z,93.80
2019-01-14T03:42:44.639Z,93.90
2019-01-14T03:45:14.251Z,93.70
2019-01-14T03:47:43.372Z,93.50
2019-01-14T03:50:15.769Z,93.60
2019-01-14T03:52:44.896Z,93.70
2019-01-14T03:55:14.997Z,93.50
2019-01-14T03:57:44.241Z,92.80
2019-01-14T04:00:17.035Z,93.10
2019-01-14T04:02:46.251Z,93.10
2019-01-14T04:05:15.377Z,93.90
2019-01-14T04:07:44.499Z,94.20
2019-01-14T04:10:17.705Z,94.30
2019-01-14T04:12:46.812Z,94.40
2019-01-14T04:15:17.748Z,94.20
2019-01-14T04:17:46.879Z,94.00
2019-01-14T04:20:17.436Z,94.00
2019-01-14T04:22:46.553Z,94.10
2019-01-14T04:25:15.711Z,94.10
2019-01-14T04:27:44.843Z,94.10
2019-01-14T04:30:22.121Z,94.30
2019-01-14T04:32:51.251Z,94.10
2019-01-14T04:35:20.623Z,93.80
2019-01-14T04:37:49.760Z,93.70
2019-01-14T04:40:18.881Z,93.30
2019-01-14T04:42:48.020Z,93.20
2019-01-14T04:45:17.427Z,93.00
2019-01-14T04:47:46.550Z,93.10
2019-01-14T04:50:17.736Z,93.10
2019-01-14T04:52:46.857Z,93.10
2019-01-14T04:55:15.985Z,92.90
2019-01-14T04:57:45.363Z,92.90
2019-01-14T05:00:20.557Z,92.60
2019-01-14T05:02:49.668Z,92.40
2019-01-14T05:05:18.791Z,92.50
2019-01-14T05:07:47.959Z,92.30
2019-01-14T05:10:20.850Z,92.10
2019-01-14T05:12:49.993Z,92.10
2019-01-14T05:15:19.108Z,92.10
2019-01-14T05:17:48.239Z,92.00
2019-01-14T05:20:22.534Z,92.10
2019-01-14T05:22:51.744Z,92.10
2019-01-14T05:25:20.880Z,92.10
2019-01-14T05:27:50.037Z,92.40
2019-01-14T05:30:20.200Z,92.60
2019-01-14T05:32:49.331Z,92.90
2019-01-14T05:35:18.487Z,93.10
2019-01-14T05:37:47.607Z,93.10
2019-01-14T05:40:19.076Z,93.00
2019-01-14T05:42:48.237Z,93.20
2019-01-14T05:45:17.402Z,92.10
2019-01-14T05:47:46.582Z,92.50
2019-01-14T05:50:16.294Z,92.70
2019-01-14T05:52:45.497Z,93.10
2019-01-14T05:55:15.658Z,93.20
2019-01-14T05:57:44.901Z,93.60
2019-01-14T06:00:23.053Z,93.50
2019-01-14T06:02:52.209Z,93.10
2019-01-14T06:05:21.332Z,93.50
2019-01-14T06:07:50.448Z,92.90
2019-01-14T06:10:19.607Z,92.90
2019-01-14T06:12:48.740Z,92.70
2019-01-14T06:15:17.931Z,92.60
2019-01-14T06:17:47.084Z,92.80
2019-01-14T06:20:19.318Z,92.90
2019-01-14T06:22:48.457Z,93.00
2019-01-14T06:25:18.233Z,93.10
2019-01-14T06:27:47.428Z,92.90
2019-01-14T06:30:21.669Z,93.30
2019-01-14T06:32:50.794Z,93.50
2019-01-14T06:35:19.921Z,93.60
2019-01-14T06:37:52.621Z,93.10
2019-01-14T06:40:20.642Z,92.90
2019-01-14T06:42:49.952Z,93.30
2019-01-14T06:45:19.063Z,92.90
2019-01-14T06:47:48.191Z,92.90
2019-01-14T06:50:18.878Z,93.20
2019-01-14T06:52:48.068Z,93.30
2019-01-14T06:55:17.552Z,93.00
2019-01-14T06:57:46.809Z,92.70
2019-01-14T07:00:21.422Z,92.80
2019-01-14T07:02:50.844Z,92.60
2019-01-14T07:05:19.977Z,92.40
2019-01-14T07:07:49.107Z,92.10
2019-01-14T07:10:26.420Z,92.10
2019-01-14T07:12:55.625Z,92.20
2019-01-14T07:15:24.742Z,92.10
2019-01-14T07:17:53.897Z,92.10
2019-01-14T07:20:23.023Z,92.70
2019-01-14T07:22:52.149Z,93.20
2019-01-14T07:25:21.392Z,93.80
2019-01-14T07:27:51.493Z,93.80
2019-01-14T07:30:22.167Z,94.10
2019-01-14T07:32:51.301Z,94.30
2019-01-14T07:35:20.422Z,93.60
2019-01-14T07:37:49.546Z,93.90
2019-01-14T07:40:19.430Z,93.80
2019-01-14T07:42:48.555Z,93.70
2019-01-14T07:45:18.538Z,94.10
2019-01-14T07:47:47.694Z,94.20
2019-01-14T07:50:17.752Z,93.70
2019-01-14T07:52:47.179Z,93.50
2019-01-14T07:55:16.329Z,93.70
2019-01-14T07:57:45.517Z,93.50
2019-01-14T08:00:23.526Z,93.50
2019-01-14T08:02:52.652Z,93.80
2019-01-14T08:05:21.773Z,93.50
2019-01-14T08:07:50.944Z,93.90
2019-01-14T08:10:21.217Z,93.70
2019-01-14T08:12:50.338Z,93.90
2019-01-14T08:15:20.449Z,93.80
2019-01-14T08:17:49.574Z,94.30
2019-01-14T08:20:18.753Z,94.10
2019-01-14T08:22:48.407Z,93.90
2019-01-14T08:25:17.536Z,93.60
2019-01-14T08:27:46.735Z,93.60
2019-01-14T08:30:18.600Z,93.40
2019-01-14T08:32:47.708Z,93.10
2019-01-14T08:35:16.831Z,93.60
2019-01-14T08:37:46.004Z,93.60
2019-01-14T08:40:16.666Z,92.70
2019-01-14T08:42:45.864Z,92.90
2019-01-14T08:45:16.640Z,92.60
2019-01-14T08:47:45.767Z,92.50
2019-01-14T08:50:17.407Z,92.30
2019-01-14T08:52:46.533Z,92.40
2019-01-14T08:55:15.665Z,91.60
2019-01-14T08:57:44.923Z,92.20
2019-01-14T09:00:18.894Z,92.10
2019-01-14T09:02:48.053Z,91.70
2019-01-14T09:05:17.242Z,91.90
2019-01-14T09:07:46.431Z,92.00
2019-01-14T09:10:18.041Z,92.40
2019-01-14T09:12:47.335Z,92.30
2019-01-14T09:15:17.798Z,92.40
2019-01-14T09:22:46.560Z,92.40
2019-01-14T09:25:15.955Z,93.10
2019-01-14T09:27:46.141Z,92.50
2019-01-14T09:30:17.406Z,92.90
2019-01-14T09:32:46.631Z,92.90
2019-01-14T09:35:15.819Z,92.10
2019-01-14T09:37:45.013Z,91.80
2019-01-14T09:40:22.203Z,92.50
2019-01-14T09:42:51.666Z,92.70
2019-01-14T09:45:20.780Z,91.80
2019-01-14T09:47:49.957Z,92.10
2019-01-14T09:50:19.073Z,92.10
2019-01-14T09:52:48.208Z,92.20
2019-01-14T09:55:18.402Z,92.90
2019-01-14T09:57:47.685Z,92.70
2019-01-14T10:00:16.820Z,92.60
2019-01-14T10:02:46.032Z,92.00
2019-01-14T10:05:18.354Z,92.50
2019-01-14T10:07:47.517Z,91.70
2019-01-14T10:10:18.666Z,91.90
2019-01-14T10:12:48.077Z,92.00
2019-01-14T10:15:19.964Z,93.50
2019-01-14T10:17:50.953Z,93.20
2019-01-14T10:20:20.097Z,94.00
2019-01-14T10:22:49.355Z,93.70
2019-01-14T10:25:18.523Z,94.30
2019-01-14T10:27:47.643Z,94.30
2019-01-14T10:30:18.204Z,94.30
2019-01-14T10:32:47.512Z,94.70
2019-01-14T10:35:16.696Z,93.50
2019-01-14T10:37:45.899Z,94.20
2019-01-14T10:40:16.197Z,93.30
2019-01-14T10:42:45.317Z,93.40
2019-01-14T10:45:19.444Z,94.00
2019-01-14T10:47:48.624Z,93.90
2019-01-14T10:50:17.746Z,94.40
2019-01-14T10:52:46.877Z,94.30
2019-01-14T10:55:17.634Z,94.70
2019-01-14T10:57:46.795Z,94.40
2019-01-14T11:00:24.521Z,94.80
2019-01-14T11:02:53.755Z,95.30
2019-01-14T11:05:25.685Z,94.50
2019-01-14T11:07:55.903Z,93.90
2019-01-14T11:10:25.021Z,93.40
2019-01-14T11:12:54.155Z,93.40
2019-01-14T11:15:24.168Z,92.60
2019-01-14T11:17:53.403Z,93.40
2019-01-14T11:20:27.704Z,93.40
2019-01-14T11:22:57.050Z,93.40
2019-01-14T11:25:26.169Z,91.70
2019-01-14T11:27:55.323Z,92.20
2019-01-14T11:30:27.059Z,92.20
2019-01-14T11:32:56.225Z,92.80
2019-01-14T11:35:26.427Z,92.00
2019-01-14T11:37:55.545Z,92.10
2019-01-14T11:40:30.875Z,92.40
2019-01-14T11:43:00.002Z,91.90
2019-01-14T11:45:29.129Z,91.30
2019-01-14T11:47:58.280Z,91.70
2019-01-14T11:50:27.421Z,90.40
2019-01-14T11:52:56.609Z,91.40
2019-01-14T11:55:25.778Z,90.60
2019-01-14T11:57:54.901Z,91.00
2019-01-14T12:00:25.777Z,90.80
2019-01-14T12:02:54.924Z,91.30
2019-01-14T12:05:24.047Z,91.50
2019-01-14T12:07:53.170Z,91.60
2019-01-14T12:15:24.766Z,92.20
2019-01-14T12:17:53.954Z,90.80
2019-01-14T12:20:23.249Z,90.70
2019-01-14T12:22:52.397Z,90.70
2019-01-14T12:25:21.517Z,91.30
2019-01-14T12:27:51.712Z,91.00
2019-01-14T12:30:26.850Z,90.90
2019-01-14T12:32:55.973Z,91.00
2019-01-14T12:35:25.106Z,90.60
2019-01-14T12:37:54.233Z,90.80
2019-01-14T12:42:53.956Z,90.70
2019-01-14T12:45:23.216Z,90.50
2019-01-14T12:47:52.340Z,90.60
2019-01-14T12:50:24.204Z,90.70
2019-01-14T12:52:53.324Z,90.60
2019-01-14T12:55:22.444Z,90.10
2019-01-14T12:57:51.611Z,90.40
2019-01-14T13:00:25.679Z,90.40
2019-01-14T13:02:58.431Z,90.30
2019-01-14T13:05:25.967Z,90.80
2019-01-14T13:07:55.126Z,91.20
2019-01-14T13:10:24.243Z,91.10
2019-01-14T13:12:53.371Z,91.70
2019-01-14T13:15:24.951Z,91.90
2019-01-14T13:17:54.092Z,91.80
2019-01-14T13:20:23.582Z,91.30
2019-01-14T13:25:21.533Z,91.00
2019-01-14T13:27:50.736Z,91.30
2019-01-14T13:30:25.459Z,91.20
2019-01-14T13:32:54.590Z,91.30
2019-01-14T13:35:23.716Z,90.90
2019-01-14T13:37:52.847Z,90.60
2019-01-14T13:40:22.940Z,90.40
2019-01-14T13:42:52.092Z,90.90
2019-01-14T13:45:22.354Z,91.00
2019-01-14T13:47:51.616Z,89.20
2019-01-14T13:50:24.019Z,88.00
2019-01-14T13:52:53.200Z,87.00
2019-01-14T14:32:48.757Z,86.20
2019-01-14T14:47:43.586Z,86.50
2019-01-14T16:12:19.448Z,85.20
2019-01-14T16:14:48.552Z,91.00
2019-01-14T16:17:17.709Z,91.40
2019-01-14T16:19:46.831Z,90.60
2019-01-14T16:22:15.961Z,91.00
2019-01-14T16:24:45.121Z,91.00
2019-01-14T16:27:14.244Z,90.70
2019-01-14T16:29:43.361Z,90.10
2019-01-14T16:32:12.524Z,89.40
2019-01-14T16:34:41.666Z,90.40
2019-01-14T16:37:10.875Z,90.60
2019-01-14T16:39:40.988Z,91.10
2019-01-14T16:42:10.113Z,91.40
2019-01-14T16:44:39.313Z,90.90
2019-01-14T16:47:08.483Z,90.40
2019-01-14T16:49:37.614Z,91.00
2019-01-14T16:52:07.035Z,91.70
2019-01-14T16:54:36.370Z,91.30
2019-01-14T16:57:05.503Z,91.40
2019-01-14T16:59:34.685Z,91.40
2019-01-14T17:02:03.896Z,91.20
2019-01-14T17:04:33.012Z,91.10
2019-01-14T17:07:02.140Z,91.30
2019-01-14T17:09:31.295Z,91.00
2019-01-14T17:12:00.433Z,91.50
2019-01-14T17:14:29.640Z,91.50
2019-01-14T17:16:58.805Z,91.80
2019-01-14T17:24:25.799Z,91.20
2019-01-14T17:26:54.931Z,91.80
2019-01-14T17:29:24.049Z,91.10
2019-01-14T17:31:53.207Z,90.70
2019-01-14T17:41:49.369Z,91.10
2019-01-14T17:44:18.569Z,90.40
2019-01-14T17:46:47.800Z,90.40
2019-01-14T17:54:14.553Z,90.40
2019-01-14T17:56:43.707Z,89.40
2019-01-14T17:59:12.901Z,90.10
2019-01-14T18:01:42.029Z,90.20
2019-01-14T18:04:11.174Z,90.40
2019-01-14T18:06:40.401Z,90.70
2019-01-14T18:09:09.534Z,90.20
2019-01-14T18:11:38.836Z,90.00
2019-01-14T18:16:36.755Z,90.40
2019-01-14T18:19:05.909Z,90.50
2019-01-14T18:21:36.102Z,90.20
2019-01-14T18:24:05.303Z,90.10
2019-01-14T18:36:30.808Z,90.20
2019-01-14T18:38:59.955Z,90.00
2019-01-14T18:41:30.738Z,90.60
2019-01-14T18:43:59.932Z,90.50
2019-01-14T18:46:29.061Z,90.20
2019-01-14T18:53:55.907Z,90.50
2019-01-14T18:58:53.863Z,90.30
2019-01-14T19:01:22.997Z,90.30
